sensor_id;sensor_type;location;lat;lon;timestamp;temperature;humidity
58102;HTU21D;52034;51.926;6.320;2024-01-30T00:00:38;7.08;85.16
58102;HTU21D;52034;51.926;6.320;2024-01-30T00:01:40;7.08;84.93
58102;HTU21D;52034;51.926;6.320;2024-01-30T00:02:41;7.09;85.26
58102;HTU21D;52034;51.926;6.320;2024-01-30T00:03:44;7.09;85.09
58102;HTU21D;52034;51.926;6.320;2024-01-30T00:04:46;7.07;85.16
58102;HTU21D;52034;51.926;6.320;2024-01-30T00:05:47;7.08;84.98
58102;HTU21D;52034;51.926;6.320;2024-01-30T00:06:50;7.10;84.88
58102;HTU21D;52034;51.926;6.320;2024-01-30T00:07:52;7.08;84.99
58102;HTU21D;52034;51.926;6.320;2024-01-30T00:08:54;7.07;84.81
58102;HTU21D;52034;51.926;6.320;2024-01-30T00:09:55;7.08;84.72
58102;HTU21D;52034;51.926;6.320;2024-01-30T00:10:57;7.02;84.78
58102;HTU21D;52034;51.926;6.320;2024-01-30T00:11:59;7.02;84.70
58102;HTU21D;52034;51.926;6.320;2024-01-30T00:13:00;7.00;84.82
58102;HTU21D;52034;51.926;6.320;2024-01-30T00:14:03;7.04;84.84
58102;HTU21D;52034;51.926;6.320;2024-01-30T00:15:04;7.00;84.64
58102;HTU21D;52034;51.926;6.320;2024-01-30T00:16:19;7.00;84.64
58102;HTU21D;52034;51.926;6.320;2024-01-30T00:17:21;6.97;84.38
58102;HTU21D;52034;51.926;6.320;2024-01-30T00:18:22;6.96;84.61
58102;HTU21D;52034;51.926;6.320;2024-01-30T00:19:24;6.96;84.61
58102;HTU21D;52034;51.926;6.320;2024-01-30T00:20:26;6.94;84.61
58102;HTU21D;52034;51.926;6.320;2024-01-30T00:21:28;6.88;85.02
58102;HTU21D;52034;51.926;6.320;2024-01-30T00:22:30;6.89;85.22
58102;HTU21D;52034;51.926;6.320;2024-01-30T00:23:32;6.93;85.49
58102;HTU21D;52034;51.926;6.320;2024-01-30T00:24:34;6.94;84.98
58102;HTU21D;52034;51.926;6.320;2024-01-30T00:25:35;6.94;84.94
58102;HTU21D;52034;51.926;6.320;2024-01-30T00:26:37;6.93;84.77
58102;HTU21D;52034;51.926;6.320;2024-01-30T00:27:39;6.87;84.89
58102;HTU21D;52034;51.926;6.320;2024-01-30T00:28:41;6.93;85.03
58102;HTU21D;52034;51.926;6.320;2024-01-30T00:29:42;6.89;84.84
58102;HTU21D;52034;51.926;6.320;2024-01-30T00:30:44;6.93;84.64
58102;HTU21D;52034;51.926;6.320;2024-01-30T00:31:46;6.86;84.82
58102;HTU21D;52034;51.926;6.320;2024-01-30T00:32:47;6.86;85.15
58102;HTU21D;52034;51.926;6.320;2024-01-30T00:33:49;6.84;85.09
58102;HTU21D;52034;51.926;6.320;2024-01-30T00:34:51;6.85;84.92
58102;HTU21D;52034;51.926;6.320;2024-01-30T00:35:52;6.86;84.83
58102;HTU21D;52034;51.926;6.320;2024-01-30T00:36:54;6.86;84.58
58102;HTU21D;52034;51.926;6.320;2024-01-30T00:37:56;6.87;85.22
58102;HTU21D;52034;51.926;6.320;2024-01-30T00:38:58;6.87;85.04
58102;HTU21D;52034;51.926;6.320;2024-01-30T00:40:00;6.83;85.06
58102;HTU21D;52034;51.926;6.320;2024-01-30T00:41:02;6.81;84.74
58102;HTU21D;52034;51.926;6.320;2024-01-30T00:42:04;6.82;84.39
58102;HTU21D;52034;51.926;6.320;2024-01-30T00:43:06;6.76;84.62
58102;HTU21D;52034;51.926;6.320;2024-01-30T00:44:07;6.74;84.51
58102;HTU21D;52034;51.926;6.320;2024-01-30T00:45:15;6.73;84.48
58102;HTU21D;52034;51.926;6.320;2024-01-30T00:46:17;6.70;84.58
58102;HTU21D;52034;51.926;6.320;2024-01-30T00:47:18;6.72;85.03
58102;HTU21D;52034;51.926;6.320;2024-01-30T00:48:20;6.72;84.48
58102;HTU21D;52034;51.926;6.320;2024-01-30T00:49:22;6.73;84.61
58102;HTU21D;52034;51.926;6.320;2024-01-30T00:50:23;6.71;84.87
58102;HTU21D;52034;51.926;6.320;2024-01-30T00:51:25;6.74;84.58
58102;HTU21D;52034;51.926;6.320;2024-01-30T00:52:27;6.74;84.93
58102;HTU21D;52034;51.926;6.320;2024-01-30T00:53:28;6.74;84.52
58102;HTU21D;52034;51.926;6.320;2024-01-30T00:54:30;6.73;84.93
58102;HTU21D;52034;51.926;6.320;2024-01-30T00:55:32;6.74;84.90
58102;HTU21D;52034;51.926;6.320;2024-01-30T00:56:34;6.73;84.91
58102;HTU21D;52034;51.926;6.320;2024-01-30T00:57:36;6.73;84.93
58102;HTU21D;52034;51.926;6.320;2024-01-30T00:58:38;6.72;84.71
58102;HTU21D;52034;51.926;6.320;2024-01-30T00:59:39;6.70;84.92
58102;HTU21D;52034;51.926;6.320;2024-01-30T01:00:41;6.74;85.11
58102;HTU21D;52034;51.926;6.320;2024-01-30T01:01:43;6.78;84.96
58102;HTU21D;52034;51.926;6.320;2024-01-30T01:02:45;6.75;84.63
58102;HTU21D;52034;51.926;6.320;2024-01-30T01:03:47;6.75;84.55
58102;HTU21D;52034;51.926;6.320;2024-01-30T01:04:50;6.73;84.98
58102;HTU21D;52034;51.926;6.320;2024-01-30T01:05:51;6.75;84.90
58102;HTU21D;52034;51.926;6.320;2024-01-30T01:06:53;6.75;84.61
58102;HTU21D;52034;51.926;6.320;2024-01-30T01:07:55;6.72;84.39
58102;HTU21D;52034;51.926;6.320;2024-01-30T01:08:57;6.73;85.13
58102;HTU21D;52034;51.926;6.320;2024-01-30T01:09:58;6.73;84.83
58102;HTU21D;52034;51.926;6.320;2024-01-30T01:11:00;6.76;84.84
58102;HTU21D;52034;51.926;6.320;2024-01-30T01:12:02;6.75;84.85
58102;HTU21D;52034;51.926;6.320;2024-01-30T01:13:04;6.76;84.84
58102;HTU21D;52034;51.926;6.320;2024-01-30T01:14:05;6.74;84.67
58102;HTU21D;52034;51.926;6.320;2024-01-30T01:15:07;6.76;85.28
58102;HTU21D;52034;51.926;6.320;2024-01-30T01:16:11;6.76;85.09
58102;HTU21D;52034;51.926;6.320;2024-01-30T01:17:12;6.79;84.47
58102;HTU21D;52034;51.926;6.320;2024-01-30T01:18:14;6.74;84.87
58102;HTU21D;52034;51.926;6.320;2024-01-30T01:19:16;6.78;84.78
58102;HTU21D;52034;51.926;6.320;2024-01-30T01:20:18;6.74;84.90
58102;HTU21D;52034;51.926;6.320;2024-01-30T01:21:19;6.76;84.45
58102;HTU21D;52034;51.926;6.320;2024-01-30T01:22:21;6.78;84.53
58102;HTU21D;52034;51.926;6.320;2024-01-30T01:23:23;6.78;84.73
58102;HTU21D;52034;51.926;6.320;2024-01-30T01:24:24;6.78;84.69
58102;HTU21D;52034;51.926;6.320;2024-01-30T01:25:26;6.70;84.10
58102;HTU21D;52034;51.926;6.320;2024-01-30T01:26:28;6.69;83.54
58102;HTU21D;52034;51.926;6.320;2024-01-30T01:27:29;6.56;84.83
58102;HTU21D;52034;51.926;6.320;2024-01-30T01:28:31;6.57;85.01
58102;HTU21D;52034;51.926;6.320;2024-01-30T01:29:32;6.60;84.98
58102;HTU21D;52034;51.926;6.320;2024-01-30T01:30:34;6.61;84.62
58102;HTU21D;52034;51.926;6.320;2024-01-30T01:31:36;6.64;84.10
58102;HTU21D;52034;51.926;6.320;2024-01-30T01:32:44;6.52;84.35
58102;HTU21D;52034;51.926;6.320;2024-01-30T01:33:52;6.51;84.71
58102;HTU21D;52034;51.926;6.320;2024-01-30T01:34:54;6.48;84.75
58102;HTU21D;52034;51.926;6.320;2024-01-30T01:35:56;6.52;84.26
58102;HTU21D;52034;51.926;6.320;2024-01-30T01:36:57;6.51;84.87
58102;HTU21D;52034;51.926;6.320;2024-01-30T01:37:59;6.49;84.62
58102;HTU21D;52034;51.926;6.320;2024-01-30T01:39:01;6.49;84.85
58102;HTU21D;52034;51.926;6.320;2024-01-30T01:40:04;6.49;84.92
58102;HTU21D;52034;51.926;6.320;2024-01-30T01:41:06;6.45;85.12
58102;HTU21D;52034;51.926;6.320;2024-01-30T01:42:09;6.49;84.90
58102;HTU21D;52034;51.926;6.320;2024-01-30T01:43:11;6.49;85.35
58102;HTU21D;52034;51.926;6.320;2024-01-30T01:44:12;6.46;85.14
58102;HTU21D;52034;51.926;6.320;2024-01-30T01:45:14;6.49;84.93
58102;HTU21D;52034;51.926;6.320;2024-01-30T01:46:16;6.48;84.98
58102;HTU21D;52034;51.926;6.320;2024-01-30T01:47:18;6.50;85.13
58102;HTU21D;52034;51.926;6.320;2024-01-30T01:48:20;6.50;85.59
58102;HTU21D;52034;51.926;6.320;2024-01-30T01:49:22;6.52;85.05
58102;HTU21D;52034;51.926;6.320;2024-01-30T01:50:25;6.48;85.06
58102;HTU21D;52034;51.926;6.320;2024-01-30T01:51:28;6.48;85.22
58102;HTU21D;52034;51.926;6.320;2024-01-30T01:52:31;6.50;85.06
58102;HTU21D;52034;51.926;6.320;2024-01-30T01:53:33;6.51;85.09
58102;HTU21D;52034;51.926;6.320;2024-01-30T01:54:34;6.50;84.94
58102;HTU21D;52034;51.926;6.320;2024-01-30T01:55:36;6.51;85.26
58102;HTU21D;52034;51.926;6.320;2024-01-30T01:56:38;6.53;84.89
58102;HTU21D;52034;51.926;6.320;2024-01-30T01:57:40;6.52;85.11
58102;HTU21D;52034;51.926;6.320;2024-01-30T01:58:43;6.51;85.27
58102;HTU21D;52034;51.926;6.320;2024-01-30T01:59:46;6.52;84.77
58102;HTU21D;52034;51.926;6.320;2024-01-30T02:00:47;6.51;84.56
58102;HTU21D;52034;51.926;6.320;2024-01-30T02:01:49;6.46;84.94
58102;HTU21D;52034;51.926;6.320;2024-01-30T02:02:51;6.46;84.75
58102;HTU21D;52034;51.926;6.320;2024-01-30T02:03:55;6.45;84.67
58102;HTU21D;52034;51.926;6.320;2024-01-30T02:04:57;6.48;85.06
58102;HTU21D;52034;51.926;6.320;2024-01-30T02:05:59;6.45;84.63
58102;HTU21D;52034;51.926;6.320;2024-01-30T02:07:01;6.43;84.52
58102;HTU21D;52034;51.926;6.320;2024-01-30T02:08:03;6.42;84.80
58102;HTU21D;52034;51.926;6.320;2024-01-30T02:09:05;6.41;84.45
58102;HTU21D;52034;51.926;6.320;2024-01-30T02:10:10;6.42;84.53
58102;HTU21D;52034;51.926;6.320;2024-01-30T02:11:11;6.35;84.81
58102;HTU21D;52034;51.926;6.320;2024-01-30T02:12:13;6.30;84.96
58102;HTU21D;52034;51.926;6.320;2024-01-30T02:13:15;6.29;85.32
58102;HTU21D;52034;51.926;6.320;2024-01-30T02:14:16;6.34;85.18
58102;HTU21D;52034;51.926;6.320;2024-01-30T02:15:18;6.29;85.21
58102;HTU21D;52034;51.926;6.320;2024-01-30T02:16:20;6.29;85.31
58102;HTU21D;52034;51.926;6.320;2024-01-30T02:17:21;6.29;84.87
58102;HTU21D;52034;51.926;6.320;2024-01-30T02:18:25;6.33;85.10
58102;HTU21D;52034;51.926;6.320;2024-01-30T02:19:26;6.31;85.21
58102;HTU21D;52034;51.926;6.320;2024-01-30T02:20:28;6.34;84.85
58102;HTU21D;52034;51.926;6.320;2024-01-30T02:21:31;6.33;84.86
58102;HTU21D;52034;51.926;6.320;2024-01-30T02:22:33;6.35;84.90
58102;HTU21D;52034;51.926;6.320;2024-01-30T02:23:35;6.33;84.72
58102;HTU21D;52034;51.926;6.320;2024-01-30T02:24:37;6.33;85.39
58102;HTU21D;52034;51.926;6.320;2024-01-30T02:25:40;6.33;85.38
58102;HTU21D;52034;51.926;6.320;2024-01-30T02:26:47;6.33;85.48
58102;HTU21D;52034;51.926;6.320;2024-01-30T02:27:49;6.34;85.50
58102;HTU21D;52034;51.926;6.320;2024-01-30T02:28:50;6.35;85.19
58102;HTU21D;52034;51.926;6.320;2024-01-30T02:29:52;6.33;85.03
58102;HTU21D;52034;51.926;6.320;2024-01-30T02:30:54;6.31;85.42
58102;HTU21D;52034;51.926;6.320;2024-01-30T02:31:55;6.28;85.59
58102;HTU21D;52034;51.926;6.320;2024-01-30T02:32:57;6.31;85.99
58102;HTU21D;52034;51.926;6.320;2024-01-30T02:33:58;6.31;85.62
58102;HTU21D;52034;51.926;6.320;2024-01-30T02:35:00;6.35;85.19
58102;HTU21D;52034;51.926;6.320;2024-01-30T02:36:02;6.35;84.87
58102;HTU21D;52034;51.926;6.320;2024-01-30T02:37:04;6.33;85.10
58102;HTU21D;52034;51.926;6.320;2024-01-30T02:38:05;6.33;85.45
58102;HTU21D;52034;51.926;6.320;2024-01-30T02:39:07;6.31;85.30
58102;HTU21D;52034;51.926;6.320;2024-01-30T02:40:08;6.33;85.76
58102;HTU21D;52034;51.926;6.320;2024-01-30T02:41:11;6.35;85.36
58102;HTU21D;52034;51.926;6.320;2024-01-30T02:42:12;6.31;85.66
58102;HTU21D;52034;51.926;6.320;2024-01-30T02:43:14;6.30;86.12
58102;HTU21D;52034;51.926;6.320;2024-01-30T02:44:16;6.34;85.78
58102;HTU21D;52034;51.926;6.320;2024-01-30T02:45:17;6.35;85.52
58102;HTU21D;52034;51.926;6.320;2024-01-30T02:46:19;6.31;85.59
58102;HTU21D;52034;51.926;6.320;2024-01-30T02:47:21;6.31;85.78
58102;HTU21D;52034;51.926;6.320;2024-01-30T02:48:22;6.35;85.61
58102;HTU21D;52034;51.926;6.320;2024-01-30T02:49:24;6.36;85.67
58102;HTU21D;52034;51.926;6.320;2024-01-30T02:50:26;6.36;85.44
58102;HTU21D;52034;51.926;6.320;2024-01-30T02:51:27;6.37;85.58
58102;HTU21D;52034;51.926;6.320;2024-01-30T02:52:29;6.37;85.77
58102;HTU21D;52034;51.926;6.320;2024-01-30T02:53:31;6.37;85.18
58102;HTU21D;52034;51.926;6.320;2024-01-30T02:54:32;6.37;85.37
58102;HTU21D;52034;51.926;6.320;2024-01-30T02:55:34;6.36;85.60
58102;HTU21D;52034;51.926;6.320;2024-01-30T02:56:36;6.37;85.35
58102;HTU21D;52034;51.926;6.320;2024-01-30T02:57:38;6.35;85.25
58102;HTU21D;52034;51.926;6.320;2024-01-30T02:58:40;6.31;85.82
58102;HTU21D;52034;51.926;6.320;2024-01-30T02:59:42;6.29;86.06
58102;HTU21D;52034;51.926;6.320;2024-01-30T03:00:43;6.28;85.99
58102;HTU21D;52034;51.926;6.320;2024-01-30T03:01:45;6.29;86.27
58102;HTU21D;52034;51.926;6.320;2024-01-30T03:02:48;6.28;85.78
58102;HTU21D;52034;51.926;6.320;2024-01-30T03:03:50;6.27;85.92
58102;HTU21D;52034;51.926;6.320;2024-01-30T03:04:51;6.26;86.41
58102;HTU21D;52034;51.926;6.320;2024-01-30T03:05:53;6.26;86.24
58102;HTU21D;52034;51.926;6.320;2024-01-30T03:06:55;6.25;86.11
58102;HTU21D;52034;51.926;6.320;2024-01-30T03:07:57;6.24;86.52
58102;HTU21D;52034;51.926;6.320;2024-01-30T03:08:58;6.28;86.39
58102;HTU21D;52034;51.926;6.320;2024-01-30T03:10:00;6.23;86.12
58102;HTU21D;52034;51.926;6.320;2024-01-30T03:11:02;6.22;86.16
58102;HTU21D;52034;51.926;6.320;2024-01-30T03:12:04;6.24;85.84
58102;HTU21D;52034;51.926;6.320;2024-01-30T03:13:08;6.20;86.16
58102;HTU21D;52034;51.926;6.320;2024-01-30T03:14:10;6.22;85.87
58102;HTU21D;52034;51.926;6.320;2024-01-30T03:15:12;6.22;85.42
58102;HTU21D;52034;51.926;6.320;2024-01-30T03:16:14;6.17;86.03
58102;HTU21D;52034;51.926;6.320;2024-01-30T03:17:15;6.15;85.84
58102;HTU21D;52034;51.926;6.320;2024-01-30T03:18:17;6.13;85.77
58102;HTU21D;52034;51.926;6.320;2024-01-30T03:19:19;6.11;85.97
58102;HTU21D;52034;51.926;6.320;2024-01-30T03:20:21;6.11;86.13
58102;HTU21D;52034;51.926;6.320;2024-01-30T03:21:22;6.09;86.17
58102;HTU21D;52034;51.926;6.320;2024-01-30T03:22:24;6.09;85.71
58102;HTU21D;52034;51.926;6.320;2024-01-30T03:23:26;6.12;85.67
58102;HTU21D;52034;51.926;6.320;2024-01-30T03:24:28;6.11;86.39
58102;HTU21D;52034;51.926;6.320;2024-01-30T03:25:29;6.13;86.28
58102;HTU21D;52034;51.926;6.320;2024-01-30T03:26:31;6.13;85.88
58102;HTU21D;52034;51.926;6.320;2024-01-30T03:27:33;6.14;85.93
58102;HTU21D;52034;51.926;6.320;2024-01-30T03:28:34;6.15;86.53
58102;HTU21D;52034;51.926;6.320;2024-01-30T03:29:36;6.13;86.07
58102;HTU21D;52034;51.926;6.320;2024-01-30T03:30:38;6.16;86.00
58102;HTU21D;52034;51.926;6.320;2024-01-30T03:31:39;6.17;86.80
58102;HTU21D;52034;51.926;6.320;2024-01-30T03:32:41;6.19;86.16
58102;HTU21D;52034;51.926;6.320;2024-01-30T03:33:43;6.17;86.15
58102;HTU21D;52034;51.926;6.320;2024-01-30T03:34:45;6.19;85.93
58102;HTU21D;52034;51.926;6.320;2024-01-30T03:35:46;6.17;85.77
58102;HTU21D;52034;51.926;6.320;2024-01-30T03:36:48;6.15;85.90
58102;HTU21D;52034;51.926;6.320;2024-01-30T03:37:50;6.15;86.47
58102;HTU21D;52034;51.926;6.320;2024-01-30T03:38:51;6.15;86.19
58102;HTU21D;52034;51.926;6.320;2024-01-30T03:39:53;6.15;86.12
58102;HTU21D;52034;51.926;6.320;2024-01-30T03:40:55;6.14;86.07
58102;HTU21D;52034;51.926;6.320;2024-01-30T03:41:56;6.16;86.09
58102;HTU21D;52034;51.926;6.320;2024-01-30T03:42:58;6.16;86.28
58102;HTU21D;52034;51.926;6.320;2024-01-30T03:43:59;6.15;86.26
58102;HTU21D;52034;51.926;6.320;2024-01-30T03:45:01;6.16;86.41
58102;HTU21D;52034;51.926;6.320;2024-01-30T03:46:03;6.17;85.96
58102;HTU21D;52034;51.926;6.320;2024-01-30T03:47:05;6.16;85.68
58102;HTU21D;52034;51.926;6.320;2024-01-30T03:48:07;6.16;85.86
58102;HTU21D;52034;51.926;6.320;2024-01-30T03:49:09;6.13;86.05
58102;HTU21D;52034;51.926;6.320;2024-01-30T03:50:11;6.13;86.22
58102;HTU21D;52034;51.926;6.320;2024-01-30T03:51:13;6.15;86.35
58102;HTU21D;52034;51.926;6.320;2024-01-30T03:52:16;6.17;86.06
58102;HTU21D;52034;51.926;6.320;2024-01-30T03:53:18;6.20;86.08
58102;HTU21D;52034;51.926;6.320;2024-01-30T03:54:20;6.21;86.38
58102;HTU21D;52034;51.926;6.320;2024-01-30T03:55:21;6.24;86.09
58102;HTU21D;52034;51.926;6.320;2024-01-30T03:56:23;6.23;85.98
58102;HTU21D;52034;51.926;6.320;2024-01-30T03:57:27;6.24;86.78
58102;HTU21D;52034;51.926;6.320;2024-01-30T03:58:28;6.24;86.60
58102;HTU21D;52034;51.926;6.320;2024-01-30T03:59:30;6.29;86.57
58102;HTU21D;52034;51.926;6.320;2024-01-30T04:00:32;6.28;86.08
58102;HTU21D;52034;51.926;6.320;2024-01-30T04:01:33;6.31;86.42
58102;HTU21D;52034;51.926;6.320;2024-01-30T04:02:35;6.35;86.02
58102;HTU21D;52034;51.926;6.320;2024-01-30T04:03:37;6.34;85.96
58102;HTU21D;52034;51.926;6.320;2024-01-30T04:04:38;6.37;85.96
58102;HTU21D;52034;51.926;6.320;2024-01-30T04:05:40;6.38;86.30
58102;HTU21D;52034;51.926;6.320;2024-01-30T04:06:42;6.39;86.31
58102;HTU21D;52034;51.926;6.320;2024-01-30T04:07:43;6.39;86.35
58102;HTU21D;52034;51.926;6.320;2024-01-30T04:08:45;6.41;86.30
58102;HTU21D;52034;51.926;6.320;2024-01-30T04:09:47;6.43;86.61
58102;HTU21D;52034;51.926;6.320;2024-01-30T04:10:48;6.43;86.41
58102;HTU21D;52034;51.926;6.320;2024-01-30T04:11:50;6.49;86.07
58102;HTU21D;52034;51.926;6.320;2024-01-30T04:12:52;6.48;86.37
58102;HTU21D;52034;51.926;6.320;2024-01-30T04:13:55;6.50;86.01
58102;HTU21D;52034;51.926;6.320;2024-01-30T04:14:57;6.50;86.14
58102;HTU21D;52034;51.926;6.320;2024-01-30T04:15:59;6.48;86.42
58102;HTU21D;52034;51.926;6.320;2024-01-30T04:17:03;6.51;86.25
58102;HTU21D;52034;51.926;6.320;2024-01-30T04:18:04;6.54;86.11
58102;HTU21D;52034;51.926;6.320;2024-01-30T04:19:06;6.57;86.35
58102;HTU21D;52034;51.926;6.320;2024-01-30T04:20:09;6.59;85.89
58102;HTU21D;52034;51.926;6.320;2024-01-30T04:21:13;6.63;85.45
58102;HTU21D;52034;51.926;6.320;2024-01-30T04:22:15;6.61;85.86
58102;HTU21D;52034;51.926;6.320;2024-01-30T04:23:17;6.63;85.79
58102;HTU21D;52034;51.926;6.320;2024-01-30T04:24:18;6.65;85.66
58102;HTU21D;52034;51.926;6.320;2024-01-30T04:25:20;6.66;86.09
58102;HTU21D;52034;51.926;6.320;2024-01-30T04:26:22;6.67;86.16
58102;HTU21D;52034;51.926;6.320;2024-01-30T04:27:23;6.70;85.64
58102;HTU21D;52034;51.926;6.320;2024-01-30T04:28:25;6.73;85.76
58102;HTU21D;52034;51.926;6.320;2024-01-30T04:29:27;6.73;85.89
58102;HTU21D;52034;51.926;6.320;2024-01-30T04:30:28;6.78;85.84
58102;HTU21D;52034;51.926;6.320;2024-01-30T04:31:30;6.81;85.69
58102;HTU21D;52034;51.926;6.320;2024-01-30T04:32:32;6.81;86.14
58102;HTU21D;52034;51.926;6.320;2024-01-30T04:33:33;6.83;85.33
58102;HTU21D;52034;51.926;6.320;2024-01-30T04:34:38;6.83;85.57
58102;HTU21D;52034;51.926;6.320;2024-01-30T04:35:39;6.87;85.58
58102;HTU21D;52034;51.926;6.320;2024-01-30T04:36:43;6.86;85.76
58102;HTU21D;52034;51.926;6.320;2024-01-30T04:37:45;6.86;85.18
58102;HTU21D;52034;51.926;6.320;2024-01-30T04:38:47;6.91;84.96
58102;HTU21D;52034;51.926;6.320;2024-01-30T04:39:49;6.94;85.61
58102;HTU21D;52034;51.926;6.320;2024-01-30T04:40:51;6.96;84.52
58102;HTU21D;52034;51.926;6.320;2024-01-30T04:41:53;7.00;84.73
58102;HTU21D;52034;51.926;6.320;2024-01-30T04:42:54;7.01;84.71
58102;HTU21D;52034;51.926;6.320;2024-01-30T04:43:56;7.03;83.69
58102;HTU21D;52034;51.926;6.320;2024-01-30T04:44:58;7.01;84.43
58102;HTU21D;52034;51.926;6.320;2024-01-30T04:45:59;7.04;84.06
58102;HTU21D;52034;51.926;6.320;2024-01-30T04:47:01;7.01;84.56
58102;HTU21D;52034;51.926;6.320;2024-01-30T04:48:03;7.04;85.41
58102;HTU21D;52034;51.926;6.320;2024-01-30T04:49:05;7.04;84.70
58102;HTU21D;52034;51.926;6.320;2024-01-30T04:50:09;7.07;84.79
58102;HTU21D;52034;51.926;6.320;2024-01-30T04:51:11;7.08;84.90
58102;HTU21D;52034;51.926;6.320;2024-01-30T04:52:12;7.09;84.10
58102;HTU21D;52034;51.926;6.320;2024-01-30T04:53:14;7.09;85.23
58102;HTU21D;52034;51.926;6.320;2024-01-30T04:54:16;7.07;84.64
58102;HTU21D;52034;51.926;6.320;2024-01-30T04:55:17;7.09;84.95
58102;HTU21D;52034;51.926;6.320;2024-01-30T04:56:22;7.09;85.31
58102;HTU21D;52034;51.926;6.320;2024-01-30T04:57:24;7.11;85.71
58102;HTU21D;52034;51.926;6.320;2024-01-30T04:58:25;7.11;84.38
58102;HTU21D;52034;51.926;6.320;2024-01-30T04:59:27;7.13;83.90
58102;HTU21D;52034;51.926;6.320;2024-01-30T05:00:29;7.13;83.49
58102;HTU21D;52034;51.926;6.320;2024-01-30T05:01:31;7.15;85.45
58102;HTU21D;52034;51.926;6.320;2024-01-30T05:02:32;7.13;84.99
58102;HTU21D;52034;51.926;6.320;2024-01-30T05:03:34;7.13;84.96
58102;HTU21D;52034;51.926;6.320;2024-01-30T05:04:36;7.15;85.04
58102;HTU21D;52034;51.926;6.320;2024-01-30T05:05:38;7.11;85.76
58102;HTU21D;52034;51.926;6.320;2024-01-30T05:06:40;7.10;85.29
58102;HTU21D;52034;51.926;6.320;2024-01-30T05:07:42;7.10;84.96
58102;HTU21D;52034;51.926;6.320;2024-01-30T05:08:43;7.09;84.24
58102;HTU21D;52034;51.926;6.320;2024-01-30T05:09:45;7.12;84.10
58102;HTU21D;52034;51.926;6.320;2024-01-30T05:10:47;7.10;83.69
58102;HTU21D;52034;51.926;6.320;2024-01-30T05:11:48;7.11;85.00
58102;HTU21D;52034;51.926;6.320;2024-01-30T05:12:50;7.13;84.76
58102;HTU21D;52034;51.926;6.320;2024-01-30T05:13:52;7.11;85.06
58102;HTU21D;52034;51.926;6.320;2024-01-30T05:14:53;7.13;85.15
58102;HTU21D;52034;51.926;6.320;2024-01-30T05:15:55;7.12;85.31
58102;HTU21D;52034;51.926;6.320;2024-01-30T05:16:56;7.10;84.77
58102;HTU21D;52034;51.926;6.320;2024-01-30T05:17:58;7.13;84.74
58102;HTU21D;52034;51.926;6.320;2024-01-30T05:19:00;7.13;85.38
58102;HTU21D;52034;51.926;6.320;2024-01-30T05:20:03;7.09;84.43
58102;HTU21D;52034;51.926;6.320;2024-01-30T05:21:06;7.08;85.60
58102;HTU21D;52034;51.926;6.320;2024-01-30T05:22:08;7.11;84.70
58102;HTU21D;52034;51.926;6.320;2024-01-30T05:23:09;7.10;85.24
58102;HTU21D;52034;51.926;6.320;2024-01-30T05:24:11;7.10;85.53
58102;HTU21D;52034;51.926;6.320;2024-01-30T05:25:14;7.11;85.03
58102;HTU21D;52034;51.926;6.320;2024-01-30T05:26:15;7.08;84.90
58102;HTU21D;52034;51.926;6.320;2024-01-30T05:27:17;7.08;85.53
58102;HTU21D;52034;51.926;6.320;2024-01-30T05:28:19;7.09;85.73
58102;HTU21D;52034;51.926;6.320;2024-01-30T05:29:21;7.10;84.85
58102;HTU21D;52034;51.926;6.320;2024-01-30T05:30:22;7.12;85.30
58102;HTU21D;52034;51.926;6.320;2024-01-30T05:31:24;7.11;85.31
58102;HTU21D;52034;51.926;6.320;2024-01-30T05:32:27;7.13;85.30
58102;HTU21D;52034;51.926;6.320;2024-01-30T05:33:29;7.15;84.91
58102;HTU21D;52034;51.926;6.320;2024-01-30T05:34:31;7.16;84.52
58102;HTU21D;52034;51.926;6.320;2024-01-30T05:35:32;7.17;85.08
58102;HTU21D;52034;51.926;6.320;2024-01-30T05:36:35;7.14;85.35
58102;HTU21D;52034;51.926;6.320;2024-01-30T05:37:36;7.19;85.14
58102;HTU21D;52034;51.926;6.320;2024-01-30T05:38:38;7.22;84.81
58102;HTU21D;52034;51.926;6.320;2024-01-30T05:39:40;7.20;84.74
58102;HTU21D;52034;51.926;6.320;2024-01-30T05:40:42;7.23;84.87
58102;HTU21D;52034;51.926;6.320;2024-01-30T05:41:43;7.23;84.49
58102;HTU21D;52034;51.926;6.320;2024-01-30T05:42:45;7.24;84.01
58102;HTU21D;52034;51.926;6.320;2024-01-30T05:43:46;7.22;84.59
58102;HTU21D;52034;51.926;6.320;2024-01-30T05:44:48;7.22;84.18
58102;HTU21D;52034;51.926;6.320;2024-01-30T05:45:50;7.22;84.78
58102;HTU21D;52034;51.926;6.320;2024-01-30T05:46:53;7.23;85.06
58102;HTU21D;52034;51.926;6.320;2024-01-30T05:47:54;7.20;85.12
58102;HTU21D;52034;51.926;6.320;2024-01-30T05:48:57;7.18;85.16
58102;HTU21D;52034;51.926;6.320;2024-01-30T05:49:59;7.20;84.64
58102;HTU21D;52034;51.926;6.320;2024-01-30T05:51:01;7.22;84.87
58102;HTU21D;52034;51.926;6.320;2024-01-30T05:52:03;7.23;84.96
58102;HTU21D;52034;51.926;6.320;2024-01-30T05:53:05;7.19;84.98
58102;HTU21D;52034;51.926;6.320;2024-01-30T05:54:07;7.22;84.65
58102;HTU21D;52034;51.926;6.320;2024-01-30T05:55:09;7.20;84.97
58102;HTU21D;52034;51.926;6.320;2024-01-30T05:56:11;7.22;85.35
58102;HTU21D;52034;51.926;6.320;2024-01-30T05:57:12;7.23;84.73
58102;HTU21D;52034;51.926;6.320;2024-01-30T05:58:14;7.24;85.16
58102;HTU21D;52034;51.926;6.320;2024-01-30T05:59:16;7.24;84.59
58102;HTU21D;52034;51.926;6.320;2024-01-30T06:00:17;7.26;84.64
58102;HTU21D;52034;51.926;6.320;2024-01-30T06:01:19;7.20;85.12
58102;HTU21D;52034;51.926;6.320;2024-01-30T06:02:21;7.24;84.90
58102;HTU21D;52034;51.926;6.320;2024-01-30T06:03:22;7.23;85.02
58102;HTU21D;52034;51.926;6.320;2024-01-30T06:04:24;7.23;85.21
58102;HTU21D;52034;51.926;6.320;2024-01-30T06:05:26;7.22;84.84
58102;HTU21D;52034;51.926;6.320;2024-01-30T06:06:28;7.20;84.97
58102;HTU21D;52034;51.926;6.320;2024-01-30T06:07:31;7.19;84.77
58102;HTU21D;52034;51.926;6.320;2024-01-30T06:08:36;7.17;84.26
58102;HTU21D;52034;51.926;6.320;2024-01-30T06:09:37;7.17;84.64
58102;HTU21D;52034;51.926;6.320;2024-01-30T06:10:39;7.17;84.56
58102;HTU21D;52034;51.926;6.320;2024-01-30T06:11:41;7.16;84.35
58102;HTU21D;52034;51.926;6.320;2024-01-30T06:12:43;7.18;84.84
58102;HTU21D;52034;51.926;6.320;2024-01-30T06:13:45;7.17;85.00
58102;HTU21D;52034;51.926;6.320;2024-01-30T06:14:46;7.17;85.04
58102;HTU21D;52034;51.926;6.320;2024-01-30T06:15:48;7.18;84.70
58102;HTU21D;52034;51.926;6.320;2024-01-30T06:16:50;7.15;85.29
58102;HTU21D;52034;51.926;6.320;2024-01-30T06:17:52;7.13;85.01
58102;HTU21D;52034;51.926;6.320;2024-01-30T06:18:53;7.15;85.09
58102;HTU21D;52034;51.926;6.320;2024-01-30T06:19:55;7.15;85.26
58102;HTU21D;52034;51.926;6.320;2024-01-30T06:20:57;7.14;85.16
58102;HTU21D;52034;51.926;6.320;2024-01-30T06:21:58;7.11;85.31
58102;HTU21D;52034;51.926;6.320;2024-01-30T06:23:00;7.16;85.03
58102;HTU21D;52034;51.926;6.320;2024-01-30T06:24:02;7.14;85.41
58102;HTU21D;52034;51.926;6.320;2024-01-30T06:25:04;7.13;85.74
58102;HTU21D;52034;51.926;6.320;2024-01-30T06:26:08;7.12;85.23
58102;HTU21D;52034;51.926;6.320;2024-01-30T06:27:10;7.14;85.33
58102;HTU21D;52034;51.926;6.320;2024-01-30T06:28:12;7.17;85.15
58102;HTU21D;52034;51.926;6.320;2024-01-30T06:29:14;7.16;84.77
58102;HTU21D;52034;51.926;6.320;2024-01-30T06:30:19;7.15;84.87
58102;HTU21D;52034;51.926;6.320;2024-01-30T06:31:21;7.11;85.71